createdAt,value
2018-04-24T00:01:22.803Z,78.15
2018-04-24T00:03:50.669Z,77.20
2018-04-24T00:06:18.634Z,78.95
2018-04-24T00:08:46.709Z,76.60
2018-04-24T00:11:14.573Z,78.20
2018-04-24T00:13:42.440Z,78.28
2018-04-24T00:16:10.272Z,80.00
2018-04-24T00:18:38.175Z,75.43
2018-04-24T00:21:06.037Z,80.82
2018-04-24T00:23:33.905Z,78.70
2018-04-24T00:26:01.944Z,81.80
2018-04-24T00:28:29.841Z,76.95
2018-04-24T00:30:57.809Z,78.20
2018-04-24T00:33:25.673Z,77.30
2018-04-24T00:35:53.541Z,77.82
2018-04-24T00:38:21.408Z,78.37
2018-04-24T00:40:49.321Z,78.15
2018-04-24T00:43:17.248Z,80.97
2018-04-24T00:45:46.649Z,79.18
2018-04-24T00:48:14.512Z,79.30
2018-04-24T00:50:42.376Z,79.43
2018-04-24T00:53:22.088Z,82.70
2018-04-24T00:55:49.909Z,80.05
2018-04-24T00:58:18.569Z,78.62
2018-04-24T01:00:46.637Z,80.90
2018-04-24T01:03:14.711Z,80.00
2018-04-24T01:05:42.533Z,80.30
2018-04-24T01:08:10.442Z,82.80
2018-04-24T01:10:38.411Z,80.30
2018-04-24T01:13:06.386Z,81.85
2018-04-24T01:15:34.348Z,81.15
2018-04-24T01:18:02.423Z,81.05
2018-04-24T01:20:30.287Z,80.93
2018-04-24T01:22:58.152Z,80.72
2018-04-24T01:25:26.017Z,80.60
2018-04-24T01:27:53.985Z,79.60
2018-04-24T01:30:21.989Z,79.47
2018-04-24T01:32:50.746Z,76.97
2018-04-24T01:35:18.712Z,81.70
2018-04-24T01:37:46.696Z,79.35
2018-04-24T01:40:14.573Z,81.65
2018-04-24T01:42:43.331Z,81.25
2018-04-24T01:45:11.303Z,85.22
2018-04-24T01:47:39.271Z,81.68
2018-04-24T01:50:07.238Z,83.50
2018-04-24T01:52:35.068Z,82.50
2018-04-24T01:55:02.972Z,81.40
2018-04-24T01:57:30.946Z,82.20
2018-04-24T02:00:00.347Z,84.07
2018-04-24T02:02:28.315Z,80.65
2018-04-24T02:04:56.184Z,82.43
2018-04-24T02:07:24.244Z,80.95
2018-04-24T02:09:52.073Z,83.12
2018-04-24T02:12:19.986Z,81.72
2018-04-24T02:14:47.849Z,82.55
2018-04-24T02:17:15.673Z,83.20
2018-04-24T02:19:43.574Z,81.18
2018-04-24T02:22:11.442Z,85.45
2018-04-24T02:24:39.249Z,82.72
2018-04-24T02:27:07.893Z,84.78
2018-04-24T02:29:35.702Z,82.93
2018-04-24T02:32:03.622Z,85.05
2018-04-24T02:34:31.444Z,82.78
2018-04-24T02:36:59.359Z,83.07
2018-04-24T02:39:27.324Z,80.97
2018-04-24T02:41:55.195Z,83.70
2018-04-24T02:44:23.053Z,82.10
2018-04-24T02:46:50.920Z,84.50
2018-04-24T02:49:18.787Z,83.07
2018-04-24T02:51:46.659Z,84.13
2018-04-24T02:54:14.628Z,83.70
2018-04-24T02:56:42.590Z,84.65
2018-04-24T02:59:10.456Z,85.28
2018-04-24T03:01:38.328Z,83.25
2018-04-24T03:04:06.186Z,85.97
2018-04-24T03:06:34.026Z,83.75
2018-04-24T03:09:01.995Z,86.12
2018-04-24T03:11:29.891Z,83.75
2018-04-24T03:13:57.755Z,85.22
2018-04-24T03:16:25.728Z,84.25
2018-04-24T03:19:11.290Z,83.70
2018-04-24T03:21:39.276Z,83.32
2018-04-24T03:24:07.346Z,86.45
2018-04-24T03:26:35.210Z,82.82
2018-04-24T03:29:03.077Z,86.18
2018-04-24T03:31:31.049Z,85.20
2018-04-24T03:33:58.910Z,85.30
2018-04-24T03:36:26.775Z,84.37
2018-04-24T03:38:54.621Z,83.20
2018-04-24T03:41:22.512Z,84.03
2018-04-24T03:43:50.477Z,84.75
2018-04-24T03:46:18.553Z,82.90
2018-04-24T03:48:46.417Z,83.78
2018-04-24T03:51:14.282Z,84.53
2018-04-24T03:53:42.149Z,83.35
2018-04-24T03:56:10.012Z,88.32
2018-04-24T03:58:37.880Z,87.20
2018-04-24T04:01:05.744Z,102.95
2018-04-24T04:03:33.610Z,100.68
2018-04-24T04:06:01.584Z,103.20
2018-04-24T04:08:29.444Z,96.22
2018-04-24T04:10:57.619Z,94.72
2018-04-24T04:13:25.709Z,96.45
2018-04-24T04:15:53.705Z,88.68
2018-04-24T04:18:33.611Z,101.65
2018-04-24T04:21:13.520Z,105.85
2018-04-24T04:23:53.288Z,118.43
2018-04-24T04:26:21.083Z,104.22
2018-04-24T04:28:48.871Z,108.03
2018-04-24T04:31:17.722Z,120.90
2018-04-24T04:33:45.587Z,104.57
2018-04-24T04:36:13.453Z,107.07
2018-04-24T04:38:41.420Z,101.50
2018-04-24T04:41:09.388Z,95.93
2018-04-24T04:43:37.259Z,90.95
2018-04-24T04:46:05.120Z,94.78
2018-04-24T04:48:32.987Z,90.00
2018-04-24T04:51:00.856Z,90.50
2018-04-24T04:53:28.725Z,93.60
2018-04-24T04:55:56.546Z,87.78
2018-04-24T04:58:24.449Z,88.43
2018-04-24T05:00:52.276Z,87.20
2018-04-24T05:03:20.182Z,88.68
2018-04-24T05:05:48.047Z,88.45
2018-04-24T05:08:16.017Z,103.30
2018-04-24T05:10:43.884Z,94.28
2018-04-24T05:13:11.671Z,93.37
2018-04-24T05:15:40.410Z,91.28
2018-04-24T05:18:08.403Z,97.40
2018-04-24T05:20:36.374Z,95.32
2018-04-24T05:23:04.242Z,100.68
2018-04-24T05:25:32.207Z,99.97
2018-04-24T05:28:00.074Z,101.25
2018-04-24T05:30:27.941Z,98.85
2018-04-24T05:32:55.906Z,100.40
2018-04-24T05:35:23.787Z,101.62
2018-04-24T05:37:51.622Z,100.70
2018-04-24T05:40:20.187Z,109.70
2018-04-24T05:42:47.970Z,114.82
2018-04-24T05:45:15.817Z,117.45
2018-04-24T05:47:43.714Z,104.30
2018-04-24T05:50:11.584Z,106.95
2018-04-24T05:52:39.861Z,101.53
2018-04-24T05:55:07.726Z,102.85
2018-04-24T05:57:35.589Z,102.43
2018-04-24T06:00:03.558Z,105.25
2018-04-24T06:02:31.631Z,100.68
2018-04-24T06:04:59.497Z,100.32
2018-04-24T06:07:27.365Z,98.35
2018-04-24T06:09:55.331Z,96.80
2018-04-24T06:12:23.130Z,95.20
2018-04-24T06:14:51.777Z,97.30
2018-04-24T06:17:19.752Z,111.43
2018-04-24T06:19:47.719Z,100.65
2018-04-24T06:22:15.583Z,99.35
2018-04-24T06:24:43.447Z,96.90
2018-04-24T06:27:12.236Z,99.80
2018-04-24T06:29:40.037Z,94.10
2018-04-24T06:32:08.785Z,93.90
2018-04-24T06:34:36.653Z,92.32
2018-04-24T06:37:04.484Z,95.93
2018-04-24T06:39:32.347Z,95.68
2018-04-24T06:42:00.252Z,96.60
2018-04-24T06:44:28.116Z,93.93
2018-04-24T06:46:55.897Z,92.80
2018-04-24T06:49:23.662Z,89.37
2018-04-24T06:51:51.509Z,93.32
2018-04-24T06:54:19.377Z,88.95
2018-04-24T06:56:47.347Z,97.65
2018-04-24T06:59:15.132Z,90.70
2018-04-24T07:01:43.724Z,90.05
2018-04-24T07:04:12.382Z,91.65
2018-04-24T07:06:41.266Z,90.78
2018-04-24T07:09:09.232Z,93.82
2018-04-24T07:11:37.107Z,87.18
2018-04-24T07:14:04.967Z,90.35
2018-04-24T07:16:35.200Z,87.43
2018-04-24T07:19:03.078Z,98.90
2018-04-24T07:21:31.759Z,88.47
2018-04-24T07:23:59.724Z,88.55
2018-04-24T07:26:28.392Z,87.45
2018-04-24T07:28:56.372Z,87.72
2018-04-24T07:31:24.437Z,85.62
2018-04-24T07:33:52.403Z,85.55
2018-04-24T07:36:20.231Z,86.63
2018-04-24T07:38:48.029Z,87.75
2018-04-24T07:41:15.831Z,90.43
2018-04-24T07:43:44.375Z,86.30
2018-04-24T07:46:12.154Z,90.90
2018-04-24T07:48:40.010Z,87.60
2018-04-24T07:51:07.838Z,92.15
2018-04-24T07:53:35.617Z,90.95
2018-04-24T07:56:03.472Z,89.25
2018-04-24T07:58:31.263Z,88.87
2018-04-24T08:00:59.073Z,90.50
2018-04-24T08:03:27.691Z,88.47
2018-04-24T08:05:55.580Z,87.75
2018-04-24T08:08:23.452Z,88.43
2018-04-24T08:10:52.135Z,88.55
2018-04-24T08:13:20.104Z,86.97
2018-04-24T08:15:47.907Z,86.97
2018-04-24T08:18:16.467Z,82.60
2018-04-24T08:20:44.270Z,82.62
2018-04-24T08:23:12.075Z,84.13
2018-04-24T08:25:40.056Z,86.70
2018-04-24T08:28:07.829Z,87.53
2018-04-24T08:30:35.687Z,83.87
2018-04-24T08:33:03.648Z,84.60
2018-04-24T08:35:31.608Z,83.75
2018-04-24T08:37:59.579Z,84.03
2018-04-24T08:40:27.447Z,83.00
2018-04-24T08:42:56.133Z,85.30
2018-04-24T08:45:25.542Z,82.90
2018-04-24T08:47:53.588Z,82.20
2018-04-24T08:50:21.577Z,85.68
2018-04-24T08:52:51.080Z,84.70
2018-04-24T08:55:19.769Z,87.82
2018-04-24T08:57:47.629Z,81.97
2018-04-24T09:00:15.604Z,89.87
2018-04-24T09:02:43.463Z,87.12
2018-04-24T09:05:12.285Z,89.53
2018-04-24T09:07:40.865Z,86.70
2018-04-24T09:10:09.457Z,89.72
2018-04-24T09:12:38.305Z,86.53
2018-04-24T09:15:06.279Z,88.37
2018-04-24T09:17:34.065Z,86.82
2018-04-24T09:20:02.725Z,87.22
2018-04-24T09:22:30.590Z,87.03
2018-04-24T09:24:58.460Z,88.45
2018-04-24T09:27:27.071Z,83.40
2018-04-24T09:30:01.363Z,85.70
2018-04-24T09:32:29.141Z,83.18
2018-04-24T09:34:56.958Z,82.68
2018-04-24T09:37:24.754Z,86.85
2018-04-24T09:39:52.559Z,83.37
2018-04-24T09:42:20.391Z,84.10
2018-04-24T09:44:48.190Z,84.85
2018-04-24T09:47:16.036Z,83.80
2018-04-24T09:49:44.594Z,80.90
2018-04-24T09:52:13.139Z,87.78
2018-04-24T09:54:40.970Z,80.93
2018-04-24T09:57:09.544Z,83.78
2018-04-24T09:59:38.103Z,80.53
2018-04-24T10:02:05.884Z,84.35
2018-04-24T10:04:33.712Z,84.25
2018-04-24T10:07:01.515Z,84.43
2018-04-24T10:09:29.341Z,81.55
2018-04-24T10:11:57.095Z,82.40
2018-04-24T10:14:25.096Z,82.88
2018-04-24T10:16:54.506Z,82.15
2018-04-24T10:19:22.364Z,85.87
2018-04-24T10:21:50.192Z,81.90
2018-04-24T10:24:18.057Z,83.10
2018-04-24T10:26:45.853Z,81.53
2018-04-24T10:29:13.674Z,82.93
2018-04-24T10:31:41.512Z,78.97
2018-04-24T10:34:10.116Z,84.05
2018-04-24T10:36:38.649Z,81.28
2018-04-24T10:39:06.580Z,88.80
2018-04-24T10:41:34.445Z,79.20
2018-04-24T10:44:02.277Z,83.07
2018-04-24T10:46:30.945Z,81.78
2018-04-24T10:48:58.807Z,82.75
2018-04-24T10:51:26.673Z,81.97
2018-04-24T10:53:56.076Z,80.72
2018-04-24T10:56:24.039Z,82.00
2018-04-24T10:58:52.012Z,79.97
2018-04-24T11:01:19.809Z,81.43
2018-04-24T11:03:48.333Z,83.35
2018-04-24T11:06:16.163Z,83.65
2018-04-24T11:08:43.955Z,81.65
2018-04-24T11:11:11.730Z,83.25
2018-04-24T11:13:39.509Z,81.57
2018-04-24T11:16:07.326Z,84.97
2018-04-24T11:18:35.110Z,83.55
2018-04-24T11:21:03.902Z,83.87
2018-04-24T11:23:31.662Z,81.47
2018-04-24T11:25:59.526Z,87.88
2018-04-24T11:28:27.390Z,82.30
2018-04-24T11:30:55.222Z,75.87
2018-04-24T11:33:23.810Z,78.85
2018-04-24T11:35:52.461Z,80.85
2018-04-24T11:38:20.340Z,79.45
2018-04-24T11:40:48.190Z,76.87
2018-04-24T11:43:15.980Z,83.72
2018-04-24T11:45:44.506Z,77.60
2018-04-24T11:48:12.308Z,84.32
2018-04-24T11:50:40.093Z,78.43
2018-04-24T11:53:08.646Z,75.57
2018-04-24T11:55:36.452Z,74.32
2018-04-24T11:58:05.056Z,76.25
2018-04-24T12:00:32.872Z,73.75
2018-04-24T12:03:00.717Z,81.00
2018-04-24T12:05:28.591Z,75.43
2018-04-24T12:07:56.391Z,74.22
2018-04-24T12:10:24.969Z,76.47
2018-04-24T12:12:53.549Z,78.03
2018-04-24T12:15:22.081Z,75.95
2018-04-24T12:17:49.874Z,78.22
2018-04-24T12:20:17.706Z,76.03
2018-04-24T12:22:45.494Z,81.53
2018-04-24T12:25:13.332Z,78.10
2018-04-24T12:27:41.164Z,77.75
2018-04-24T12:30:08.969Z,85.60
2018-04-24T12:32:36.913Z,82.35
2018-04-24T12:35:04.825Z,79.40
2018-04-24T12:37:32.830Z,81.97
2018-04-24T12:40:01.487Z,84.95
2018-04-24T12:42:29.288Z,80.00
2018-04-24T12:44:57.854Z,82.93
2018-04-24T12:47:26.410Z,80.32
2018-04-24T12:49:54.251Z,82.70
2018-04-24T12:52:22.058Z,82.28
2018-04-24T12:54:49.923Z,79.37
2018-04-24T12:57:17.730Z,82.20
2018-04-24T12:59:45.502Z,80.62
2018-04-24T13:02:13.409Z,83.37
2018-04-24T13:04:41.457Z,80.45
2018-04-24T13:07:09.351Z,81.87
2018-04-24T13:09:37.212Z,80.97
2018-04-24T13:12:05.006Z,83.85
2018-04-24T13:14:33.663Z,80.53
2018-04-24T13:17:01.460Z,83.30
2018-04-24T13:19:30.035Z,81.80
2018-04-24T13:21:58.687Z,78.45
2018-04-24T13:24:26.614Z,82.75
2018-04-24T13:26:54.523Z,78.65
2018-04-24T13:29:22.390Z,80.47
2018-04-24T13:31:50.148Z,82.28
2018-04-24T13:34:17.963Z,78.43
2018-04-24T13:36:45.829Z,77.70
2018-04-24T13:39:13.833Z,82.53
2018-04-24T13:41:41.833Z,81.05
2018-04-24T13:44:09.629Z,82.90
2018-04-24T13:46:37.405Z,81.25
2018-04-24T13:49:05.186Z,81.05
2018-04-24T13:51:33.001Z,79.60
2018-04-24T13:54:00.842Z,83.18
2018-04-24T13:56:28.683Z,81.68
2018-04-24T13:58:56.576Z,78.97
2018-04-24T14:01:24.526Z,84.00
2018-04-24T14:03:52.371Z,91.10
2018-04-24T14:06:20.155Z,80.00
2018-04-24T14:08:47.981Z,78.03
2018-04-24T14:11:16.541Z,82.40
2018-04-24T14:13:44.440Z,77.25
2018-04-24T14:16:12.262Z,80.20
2018-04-24T14:18:40.038Z,85.75
2018-04-24T14:21:08.602Z,77.22
2018-04-24T14:23:36.464Z,81.10
2018-04-24T14:26:04.406Z,82.55
2018-04-24T14:28:32.298Z,79.87
2018-04-24T14:31:00.167Z,79.43
2018-04-24T14:33:28.033Z,79.40
2018-04-24T14:35:55.810Z,80.32
2018-04-24T14:38:23.798Z,79.97
2018-04-24T14:40:52.364Z,78.65
2018-04-24T14:43:20.161Z,78.35
2018-04-24T14:45:48.183Z,80.97
2018-04-24T14:48:16.046Z,80.35
2018-04-24T14:50:44.017Z,78.45
2018-04-24T14:53:11.988Z,81.20
2018-04-24T14:55:41.348Z,78.75
2018-04-24T14:58:09.251Z,80.20
2018-04-24T15:00:37.120Z,79.93
2018-04-24T15:03:05.085Z,80.57
2018-04-24T15:05:33.770Z,75.40
2018-04-24T15:08:01.639Z,79.45
2018-04-24T15:10:29.505Z,77.45
2018-04-24T15:12:57.368Z,77.03
2018-04-24T15:15:25.351Z,78.82
2018-04-24T15:17:54.661Z,76.50
2018-04-24T15:20:23.328Z,77.93
2018-04-24T15:22:51.336Z,76.93
2018-04-24T15:25:19.261Z,78.95
2018-04-24T15:27:47.229Z,78.20
2018-04-24T15:30:15.096Z,80.47
2018-04-24T15:32:43.069Z,81.63
2018-04-24T15:35:10.987Z,81.70
2018-04-24T15:37:38.902Z,77.80
2018-04-24T15:40:06.766Z,84.07
2018-04-24T15:42:34.733Z,78.37
2018-04-24T15:45:02.597Z,82.60
2018-04-24T15:47:30.631Z,79.03
2018-04-24T15:49:58.533Z,81.30
2018-04-24T15:52:26.397Z,77.80
2018-04-24T15:54:54.418Z,80.43
2018-04-24T15:57:22.342Z,82.30
2018-04-24T15:59:50.259Z,82.15
2018-04-24T16:02:18.169Z,80.80
2018-04-24T16:04:46.038Z,78.37
2018-04-24T16:07:14.005Z,85.95
2018-04-24T16:09:41.870Z,80.50
2018-04-24T16:12:09.738Z,83.97
2018-04-24T16:14:37.603Z,78.68
2018-04-24T16:17:05.570Z,80.80
2018-04-24T16:19:33.545Z,79.07
2018-04-24T16:22:01.511Z,80.45
2018-04-24T16:24:30.191Z,79.95
2018-04-24T16:26:58.165Z,79.07
2018-04-24T16:29:26.026Z,78.93
2018-04-24T16:31:54.580Z,83.87
2018-04-24T16:34:22.411Z,82.28
2018-04-24T16:36:50.988Z,82.75
2018-04-24T16:39:19.896Z,81.78
2018-04-24T16:41:47.509Z,82.07
2018-04-24T16:44:15.375Z,86.43
2018-04-24T16:46:43.239Z,79.90
2018-04-24T16:49:11.309Z,84.47
2018-04-24T16:51:39.180Z,82.30
2018-04-24T16:54:07.048Z,84.20
2018-04-24T16:56:34.978Z,86.60
2018-04-24T16:59:02.878Z,85.03
2018-04-24T17:01:30.849Z,82.45
2018-04-24T17:03:58.711Z,82.25
2018-04-24T17:06:26.682Z,78.40
2018-04-24T17:08:54.547Z,81.28
2018-04-24T17:11:22.490Z,81.78
2018-04-24T17:13:50.379Z,78.53
2018-04-24T17:16:18.203Z,79.80
2018-04-24T17:18:46.115Z,85.28
2018-04-24T17:21:14.182Z,81.80
2018-04-24T17:23:42.049Z,79.10
2018-04-24T17:26:09.913Z,85.38
2018-04-24T17:28:37.885Z,79.22
2018-04-24T17:31:05.752Z,82.70
2018-04-24T17:33:33.615Z,80.05
2018-04-24T17:36:01.597Z,83.15
2018-04-24T17:38:29.553Z,80.62
2018-04-24T17:40:57.508Z,83.12
2018-04-24T17:43:25.402Z,78.87
2018-04-24T17:45:53.357Z,84.82
2018-04-24T17:48:21.222Z,85.05
2018-04-24T17:50:49.191Z,82.45
2018-04-24T17:53:17.368Z,78.87
2018-04-24T17:55:45.312Z,82.85
2018-04-24T17:58:13.205Z,83.40
2018-04-24T18:00:41.127Z,78.57
2018-04-24T18:03:09.125Z,83.00
2018-04-24T18:05:37.002Z,81.40
2018-04-24T18:08:04.973Z,86.63
2018-04-24T18:10:32.869Z,83.00
2018-04-24T18:13:01.625Z,82.50
2018-04-24T18:15:29.696Z,81.18
2018-04-24T18:17:57.669Z,84.00
2018-04-24T18:20:25.605Z,81.65
2018-04-24T18:22:53.608Z,81.10
2018-04-24T18:25:22.294Z,76.97
2018-04-24T18:27:50.148Z,79.25
2018-04-24T18:30:17.992Z,83.45
2018-04-24T18:32:45.962Z,81.60
2018-04-24T18:35:13.970Z,84.62
2018-04-24T18:37:41.825Z,78.47
2018-04-24T18:40:09.684Z,82.75
2018-04-24T18:42:37.549Z,84.25
2018-04-24T18:45:05.368Z,86.32
2018-04-24T18:47:33.233Z,77.72
2018-04-24T18:50:01.100Z,80.57
2018-04-24T18:52:28.910Z,79.47
2018-04-24T18:54:56.961Z,79.22
2018-04-24T18:57:24.880Z,86.70
2018-04-24T18:59:53.541Z,80.35
2018-04-24T19:02:21.588Z,81.85
2018-04-24T19:04:49.616Z,79.05
2018-04-24T19:07:18.239Z,84.68
2018-04-24T19:09:46.089Z,82.68
2018-04-24T19:12:13.941Z,84.80
2018-04-24T19:14:41.760Z,84.00
2018-04-24T19:17:09.606Z,85.20
2018-04-24T19:19:37.517Z,84.37
2018-04-24T19:22:06.115Z,90.65
2018-04-24T19:24:39.675Z,86.97
2018-04-24T19:27:07.540Z,89.30
2018-04-24T19:29:35.407Z,112.90
2018-04-24T19:32:09.110Z,107.97
2018-04-24T19:34:37.076Z,106.47
2018-04-24T19:37:05.052Z,106.55
2018-04-24T19:39:38.499Z,102.55
2018-04-24T19:42:06.514Z,108.45
2018-04-24T19:44:34.511Z,95.60
2018-04-24T19:47:03.496Z,95.38
2018-04-24T19:49:37.837Z,91.80
2018-04-24T19:52:05.869Z,99.18
2018-04-24T19:54:33.949Z,90.18
2018-04-24T19:57:01.749Z,95.43
2018-04-24T19:59:29.740Z,95.93
2018-04-24T20:01:57.736Z,93.93
2018-04-24T20:04:25.775Z,91.35
2018-04-24T20:06:54.400Z,91.25
2018-04-24T20:09:22.383Z,93.53
2018-04-24T20:11:51.350Z,94.27
2018-04-24T20:14:19.326Z,89.43
2018-04-24T20:16:47.986Z,94.80
2018-04-24T20:19:16.113Z,90.10
2018-04-24T20:21:45.000Z,92.45
2018-04-24T20:24:13.799Z,87.80
2018-04-24T20:26:41.881Z,85.05
2018-04-24T20:29:10.214Z,88.62
2018-04-24T20:31:38.478Z,91.82
2018-04-24T20:34:06.596Z,90.80
2018-04-24T20:36:35.116Z,89.13
2018-04-24T20:39:03.408Z,92.40
2018-04-24T20:41:31.339Z,96.97
2018-04-24T20:43:59.345Z,91.43
2018-04-24T20:46:27.316Z,108.95
2018-04-24T20:48:55.381Z,88.45
2018-04-24T20:51:24.068Z,84.03
2018-04-24T20:53:52.036Z,85.65
2018-04-24T20:56:19.836Z,95.57
2018-04-24T20:58:48.481Z,83.12
2018-04-24T21:01:16.359Z,86.68
2018-04-24T21:03:44.233Z,99.28
2018-04-24T21:06:12.226Z,85.20
2018-04-24T21:08:40.843Z,80.35
2018-04-24T21:11:08.639Z,80.05
2018-04-24T21:13:36.457Z,80.45
2018-04-24T21:16:04.283Z,79.95
2018-04-24T21:18:32.139Z,80.30
2018-04-24T21:21:00.100Z,79.35
2018-04-24T21:23:28.272Z,91.07
2018-04-24T21:25:56.257Z,82.10
2018-04-24T21:28:24.317Z,82.85
2018-04-24T21:30:52.184Z,81.18
2018-04-24T21:33:20.150Z,79.75
2018-04-24T21:35:48.234Z,92.88
2018-04-24T21:38:16.288Z,80.62
2018-04-24T21:40:44.259Z,80.05
2018-04-24T21:43:12.121Z,81.43
2018-04-24T21:45:40.810Z,89.63
2018-04-24T21:48:08.777Z,86.57
2018-04-24T21:50:36.874Z,83.37
2018-04-24T21:53:04.827Z,79.30
2018-04-24T21:55:32.647Z,80.97
2018-04-24T21:59:45.034Z,80.62
2018-04-24T22:02:13.649Z,80.03
2018-04-24T22:04:41.463Z,79.00
2018-04-24T22:07:09.258Z,79.47
2018-04-24T22:09:37.138Z,79.47
2018-04-24T22:12:04.923Z,78.82
2018-04-24T22:14:32.962Z,78.95
2018-04-24T22:17:00.755Z,81.25
2018-04-24T22:19:28.590Z,82.85
2018-04-24T22:21:56.529Z,81.55
2018-04-24T22:24:25.115Z,83.18
2018-04-24T22:26:52.984Z,78.45
2018-04-24T22:29:21.553Z,83.12
2018-04-24T22:31:49.349Z,80.93
2018-04-24T22:34:17.143Z,83.00
2018-04-24T22:36:44.995Z,79.90
2018-04-24T22:39:12.807Z,82.72
2018-04-24T22:41:40.610Z,79.45
2018-04-24T22:44:08.448Z,108.82
2018-04-24T22:46:36.246Z,80.03
2018-04-24T22:49:04.364Z,77.07
2018-04-24T22:51:32.148Z,77.78
2018-04-24T22:53:59.975Z,76.35
2018-04-24T22:56:27.964Z,78.05
2018-04-24T22:58:55.836Z,75.53
2018-04-24T23:01:24.011Z,79.62
2018-04-24T23:03:51.934Z,77.85
2018-04-24T23:06:19.836Z,80.28
2018-04-24T23:08:47.808Z,78.30
2018-04-24T23:11:27.762Z,78.57
2018-04-24T23:14:07.610Z,77.93
2018-04-24T23:16:47.454Z,76.35
2018-04-24T23:19:27.301Z,77.03
2018-04-24T23:21:54.754Z,76.80
2018-04-24T23:24:23.539Z,79.20
2018-04-24T23:26:51.523Z,76.47
2018-04-24T23:29:19.372Z,79.40
2018-04-24T23:31:47.351Z,76.57
2018-04-24T23:34:15.315Z,79.25
2018-04-24T23:36:43.291Z,75.47
2018-04-24T23:39:11.351Z,76.90
2018-04-24T23:41:39.297Z,75.80
2018-04-24T23:44:07.187Z,78.25
2018-04-24T23:46:35.060Z,78.32
2018-04-24T23:49:03.032Z,75.37
2018-04-24T23:51:30.995Z,78.40
2018-04-24T23:53:59.062Z,77.12
2018-04-24T23:56:27.138Z,77.45
2018-04-24T23:58:55.303Z,76.57
